createdAt,value
2018-07-02T00:00:22.630Z,1015.81
2018-07-02T00:01:22.611Z,1015.8
2018-07-02T00:02:23.110Z,1015.81
2018-07-02T00:03:22.623Z,1015.77
2018-07-02T00:04:22.527Z,1015.74
2018-07-02T00:05:22.580Z,1015.82
2018-07-02T00:06:23.145Z,1015.77
2018-07-02T00:07:22.558Z,1015.74
2018-07-02T00:08:22.561Z,1015.76
2018-07-02T00:09:22.581Z,1015.79
2018-07-02T00:10:23.373Z,1015.76
2018-07-02T00:11:22.566Z,1015.74
2018-07-02T00:12:22.595Z,1015.73
2018-07-02T00:13:22.596Z,1015.68
2018-07-02T00:14:22.580Z,1015.65
2018-07-02T00:15:22.585Z,1015.63
2018-07-02T00:16:22.600Z,1015.66
2018-07-02T00:17:22.635Z,1015.67
2018-07-02T00:18:22.611Z,1015.65
2018-07-02T00:19:23.027Z,1015.63
2018-07-02T00:20:22.599Z,1015.61
2018-07-02T00:21:22.595Z,1015.62
2018-07-02T00:22:22.541Z,1015.67
2018-07-02T00:23:23.468Z,1015.65
2018-07-02T00:24:22.565Z,1015.67
2018-07-02T00:25:22.732Z,1015.65
2018-07-02T00:26:22.665Z,1015.65
2018-07-02T00:27:23.188Z,1015.69
2018-07-02T00:28:22.598Z,1015.65
2018-07-02T00:29:22.636Z,1015.64
2018-07-02T00:30:22.801Z,1015.65
2018-07-02T00:31:23.213Z,1015.64
2018-07-02T00:32:23.122Z,1015.63
2018-07-02T00:33:22.614Z,1015.64
2018-07-02T00:34:22.606Z,1015.63
2018-07-02T00:35:23.036Z,1015.62
2018-07-02T00:36:22.645Z,1015.6
2018-07-02T00:37:22.639Z,1015.64
2018-07-02T00:38:23.161Z,1015.63
2018-07-02T00:39:22.646Z,1015.67
2018-07-02T00:40:23.182Z,1015.65
2018-07-02T00:41:22.604Z,1015.65
2018-07-02T00:42:22.638Z,1015.64
2018-07-02T00:43:22.686Z,1015.62
2018-07-02T00:44:22.629Z,1015.64
2018-07-02T00:45:23.003Z,1015.63
2018-07-02T00:46:22.587Z,1015.63
2018-07-02T00:47:22.910Z,1015.61
2018-07-02T00:48:22.624Z,1015.65
2018-07-02T00:49:22.826Z,1015.63
2018-07-02T00:50:22.670Z,1015.66
2018-07-02T00:51:22.611Z,1015.65
2018-07-02T00:52:22.614Z,1015.68
2018-07-02T00:53:25.287Z,1015.68
2018-07-02T00:54:23.232Z,1015.74
2018-07-02T00:55:22.671Z,1015.69
2018-07-02T00:56:23.410Z,1015.68
2018-07-02T00:57:24.218Z,1015.66
2018-07-02T00:58:23.614Z,1015.69
2018-07-02T00:59:22.632Z,1015.68
2018-07-02T01:00:23.001Z,1015.72
2018-07-02T01:01:22.950Z,1015.68
2018-07-02T01:02:22.643Z,1015.7
2018-07-02T01:03:22.817Z,1015.67
2018-07-02T01:04:22.831Z,1015.7
2018-07-02T01:05:22.744Z,1015.67
2018-07-02T01:06:23.647Z,1015.69
2018-07-02T01:07:23.152Z,1015.68
2018-07-02T01:08:23.969Z,1015.73
2018-07-02T01:09:22.673Z,1015.76
2018-07-02T01:10:23.274Z,1015.79
2018-07-02T01:11:23.503Z,1015.81
2018-07-02T01:12:22.682Z,1015.84
2018-07-02T01:13:22.623Z,1015.85
2018-07-02T01:14:22.690Z,1015.8
2018-07-02T01:15:25.860Z,1015.88
2018-07-02T01:16:22.659Z,1015.9
2018-07-02T01:17:22.683Z,1015.9
2018-07-02T01:18:22.723Z,1015.87
2018-07-02T01:19:22.677Z,1015.9
2018-07-02T01:20:22.639Z,1015.92
2018-07-02T01:21:22.727Z,1015.88
2018-07-02T01:22:22.651Z,1015.91
2018-07-02T01:23:24.492Z,1015.92
2018-07-02T01:24:24.202Z,1015.91
2018-07-02T01:25:22.782Z,1015.88
2018-07-02T01:26:23.282Z,1015.91
2018-07-02T01:27:22.669Z,1015.9
2018-07-02T01:28:22.705Z,1015.88
2018-07-02T01:29:22.922Z,1015.87
2018-07-02T01:30:22.673Z,1015.96
2018-07-02T01:31:22.645Z,1015.92
2018-07-02T01:32:23.120Z,1015.95
2018-07-02T01:33:25.960Z,1015.93
2018-07-02T01:34:23.339Z,1015.96
2018-07-02T01:35:22.650Z,1016
2018-07-02T01:36:23.253Z,1015.99
2018-07-02T01:37:23.975Z,1015.99
2018-07-02T01:38:22.695Z,1015.99
2018-07-02T01:39:23.280Z,1015.98
2018-07-02T01:40:22.682Z,1016
2018-07-02T01:41:22.674Z,1016.06
2018-07-02T01:42:22.670Z,1016.07
2018-07-02T01:43:22.666Z,1016.06
2018-07-02T01:44:22.964Z,1016.04
2018-07-02T01:45:23.211Z,1016.04
2018-07-02T01:46:22.706Z,1016.08
2018-07-02T01:47:22.684Z,1016.09
2018-07-02T01:48:22.929Z,1016.08
2018-07-02T01:49:22.706Z,1016.07
2018-07-02T01:50:22.652Z,1016.05
2018-07-02T01:51:23.250Z,1016.07
2018-07-02T01:52:22.709Z,1016.08
2018-07-02T01:53:22.694Z,1016.05
2018-07-02T01:54:22.824Z,1016.02
2018-07-02T01:55:22.667Z,1016.05
2018-07-02T01:56:22.668Z,1016.02
2018-07-02T01:57:22.699Z,1016.03
2018-07-02T01:58:23.344Z,1015.97
2018-07-02T01:59:22.824Z,1016.06
2018-07-02T02:00:22.708Z,1016.04
2018-07-02T02:01:22.710Z,1016.05
2018-07-02T02:02:23.021Z,1016.05
2018-07-02T02:03:22.701Z,1016.04
2018-07-02T02:04:22.698Z,1016.06
2018-07-02T02:05:22.696Z,1016.08
2018-07-02T02:06:23.252Z,1016.09
2018-07-02T02:07:22.684Z,1016.07
2018-07-02T02:08:22.661Z,1016.08
2018-07-02T02:09:22.676Z,1016.11
2018-07-02T02:10:22.703Z,1016.08
2018-07-02T02:11:22.690Z,1016.1
2018-07-02T02:12:22.698Z,1016.04
2018-07-02T02:13:22.786Z,1016.05
2018-07-02T02:14:22.697Z,1016.05
2018-07-02T02:15:22.681Z,1016.08
2018-07-02T02:16:22.686Z,1016.09
2018-07-02T02:17:22.682Z,1016.03
2018-07-02T02:18:22.725Z,1016.06
2018-07-02T02:19:22.709Z,1016.04
2018-07-02T02:20:22.694Z,1015.96
2018-07-02T02:21:22.761Z,1015.96
2018-07-02T02:22:22.821Z,1015.97
2018-07-02T02:23:23.272Z,1015.98
2018-07-02T02:24:22.808Z,1015.95
2018-07-02T02:25:22.698Z,1015.96
2018-07-02T02:26:22.683Z,1015.94
2018-07-02T02:27:23.201Z,1015.96
2018-07-02T02:28:22.697Z,1015.95
2018-07-02T02:29:22.708Z,1015.93
2018-07-02T02:30:22.710Z,1015.92
2018-07-02T02:31:23.329Z,1015.93
2018-07-02T02:32:22.791Z,1015.91
2018-07-02T02:33:22.688Z,1015.89
2018-07-02T02:34:22.745Z,1015.91
2018-07-02T02:35:23.263Z,1015.92
2018-07-02T02:36:22.718Z,1015.91
2018-07-02T02:37:22.805Z,1015.96
2018-07-02T02:38:22.895Z,1015.92
2018-07-02T02:39:23.075Z,1015.96
2018-07-02T02:40:22.833Z,1015.96
2018-07-02T02:41:22.775Z,1015.96
2018-07-02T02:42:22.737Z,1015.98
2018-07-02T02:43:22.913Z,1015.95
2018-07-02T02:44:22.714Z,1015.98
2018-07-02T02:45:22.760Z,1015.98
2018-07-02T02:46:22.740Z,1016.01
2018-07-02T02:47:22.742Z,1016
2018-07-02T02:48:22.704Z,1015.98
2018-07-02T02:49:22.738Z,1015.96
2018-07-02T02:50:22.716Z,1015.96
2018-07-02T02:51:22.744Z,1015.95
2018-07-02T02:52:22.714Z,1015.92
2018-07-02T02:53:22.719Z,1015.96
2018-07-02T02:54:22.738Z,1015.94
2018-07-02T02:55:22.741Z,1015.94
2018-07-02T02:56:22.723Z,1015.92
2018-07-02T02:57:22.728Z,1015.89
2018-07-02T02:58:22.709Z,1015.93
2018-07-02T02:59:22.753Z,1015.91
2018-07-02T03:00:23.221Z,1015.9
2018-07-02T03:01:22.773Z,1015.92
2018-07-02T03:02:22.729Z,1015.93
2018-07-02T03:03:22.730Z,1015.94
2018-07-02T03:04:23.041Z,1015.97
2018-07-02T03:05:22.750Z,1015.9
2018-07-02T03:06:22.756Z,1015.95
2018-07-02T03:07:22.735Z,1015.89
2018-07-02T03:08:22.761Z,1015.91
2018-07-02T03:09:22.805Z,1015.9
2018-07-02T03:10:22.784Z,1015.9
2018-07-02T03:11:23.046Z,1015.91
2018-07-02T03:12:22.771Z,1015.88
2018-07-02T03:13:23.322Z,1015.92
2018-07-02T03:14:22.806Z,1015.91
2018-07-02T03:15:22.808Z,1015.97
2018-07-02T03:16:22.819Z,1016.04
2018-07-02T03:17:23.539Z,1016.03
2018-07-02T03:18:22.907Z,1016.06
2018-07-02T03:19:22.745Z,1016.05
2018-07-02T03:20:22.961Z,1016.05
2018-07-02T03:21:22.895Z,1016.1
2018-07-02T03:22:22.745Z,1016.08
2018-07-02T03:23:23.049Z,1016.06
2018-07-02T03:24:22.778Z,1016.06
2018-07-02T03:25:23.493Z,1016.03
2018-07-02T03:26:22.776Z,1016.06
2018-07-02T03:27:22.852Z,1016.03
2018-07-02T03:28:22.875Z,1016.01
2018-07-02T03:29:23.319Z,1016.01
2018-07-02T03:30:22.789Z,1016.01
2018-07-02T03:31:22.969Z,1016.03
2018-07-02T03:32:22.960Z,1016.05
2018-07-02T03:33:23.549Z,1016.1
2018-07-02T03:34:22.759Z,1016.04
2018-07-02T03:35:22.789Z,1016.05
2018-07-02T03:36:22.810Z,1016
2018-07-02T03:37:23.372Z,1016.04
2018-07-02T03:38:22.800Z,1016.05
2018-07-02T03:39:22.851Z,1016.11
2018-07-02T03:40:22.807Z,1016.07
2018-07-02T03:41:23.402Z,1016.05
2018-07-02T03:42:22.770Z,1016.02
2018-07-02T03:43:22.802Z,1016.08
2018-07-02T03:44:26.790Z,1016.09
2018-07-02T03:45:23.327Z,1016.08
2018-07-02T03:46:22.794Z,1016.05
2018-07-02T03:47:22.973Z,1016.06
2018-07-02T03:48:22.789Z,1016.03
2018-07-02T03:49:23.356Z,1016.05
2018-07-02T03:50:22.806Z,1016.06
2018-07-02T03:51:22.810Z,1016.04
2018-07-02T03:52:23.039Z,1016.06
2018-07-02T03:53:23.385Z,1016.1
2018-07-02T03:54:22.808Z,1016.08
2018-07-02T03:55:22.894Z,1016.1
2018-07-02T03:56:22.830Z,1016.04
2018-07-02T03:57:23.308Z,1016.07
2018-07-02T03:58:22.841Z,1016.05
2018-07-02T03:59:22.848Z,1016.06
2018-07-02T04:00:22.791Z,1016.09
2018-07-02T04:01:23.374Z,1016.05
2018-07-02T04:02:22.804Z,1015.99
2018-07-02T04:03:22.829Z,1016.05
2018-07-02T04:04:22.826Z,1016.12
2018-07-02T04:05:23.467Z,1016.06
2018-07-02T04:06:22.813Z,1016.07
2018-07-02T04:07:22.828Z,1016.09
2018-07-02T04:08:22.835Z,1016.12
2018-07-02T04:09:23.392Z,1016.21
2018-07-02T04:10:22.785Z,1016.19
2018-07-02T04:11:22.847Z,1016.21
2018-07-02T04:12:22.816Z,1016.19
2018-07-02T04:13:23.424Z,1016.17
2018-07-02T04:14:22.833Z,1016.21
2018-07-02T04:15:22.856Z,1016.17
2018-07-02T04:16:23.442Z,1016.19
2018-07-02T04:17:22.864Z,1016.12
2018-07-02T04:18:23.456Z,1016.15
2018-07-02T04:19:23.565Z,1016.12
2018-07-02T04:20:23.411Z,1016.11
2018-07-02T04:21:23.481Z,1016.11
2018-07-02T04:22:22.974Z,1016.11
2018-07-02T04:23:23.284Z,1016.23
2018-07-02T04:24:22.844Z,1016.13
2018-07-02T04:25:23.501Z,1016.18
2018-07-02T04:26:22.871Z,1016.24
2018-07-02T04:27:22.935Z,1016.23
2018-07-02T04:28:23.426Z,1016.25
2018-07-02T04:29:22.841Z,1016.25
2018-07-02T04:30:22.958Z,1016.24
2018-07-02T04:31:22.889Z,1016.25
2018-07-02T04:32:22.949Z,1016.22
2018-07-02T04:33:22.932Z,1016.18
2018-07-02T04:34:22.950Z,1016.22
2018-07-02T04:35:22.901Z,1016.19
2018-07-02T04:36:22.939Z,1016.19
2018-07-02T04:37:22.897Z,1016.2
2018-07-02T04:38:23.045Z,1016.18
2018-07-02T04:39:22.908Z,1016.23
2018-07-02T04:40:24.800Z,1016.23
2018-07-02T04:41:23.425Z,1016.29
2018-07-02T04:42:22.947Z,1016.22
2018-07-02T04:43:23.435Z,1016.26
2018-07-02T04:44:23.747Z,1016.23
2018-07-02T04:45:23.551Z,1016.22
2018-07-02T04:46:22.958Z,1016.28
2018-07-02T04:47:24.405Z,1016.3
2018-07-02T04:48:23.473Z,1016.29
2018-07-02T04:49:23.478Z,1016.29
2018-07-02T04:50:23.692Z,1016.25
2018-07-02T04:51:24.223Z,1016.32
2018-07-02T04:52:23.601Z,1016.25
2018-07-02T04:53:22.944Z,1016.25
2018-07-02T04:54:23.821Z,1016.24
2018-07-02T04:55:23.631Z,1016.31
2018-07-02T04:56:23.841Z,1016.27
2018-07-02T04:57:22.865Z,1016.31
2018-07-02T04:58:23.651Z,1016.33
2018-07-02T04:59:23.016Z,1016.32
2018-07-02T05:00:22.891Z,1016.39
2018-07-02T05:01:22.910Z,1016.42
2018-07-02T05:02:22.983Z,1016.39
2018-07-02T05:03:22.915Z,1016.35
2018-07-02T05:04:22.939Z,1016.36
2018-07-02T05:05:22.953Z,1016.3
2018-07-02T05:06:22.927Z,1016.39
2018-07-02T05:07:22.985Z,1016.4
2018-07-02T05:08:23.151Z,1016.33
2018-07-02T05:09:22.919Z,1016.36
2018-07-02T05:10:22.958Z,1016.32
2018-07-02T05:11:22.924Z,1016.37
2018-07-02T05:12:22.910Z,1016.33
2018-07-02T05:13:22.882Z,1016.32
2018-07-02T05:14:23.643Z,1016.31
2018-07-02T05:15:22.891Z,1016.33
2018-07-02T05:16:22.884Z,1016.28
2018-07-02T05:17:22.880Z,1016.33
2018-07-02T05:18:22.885Z,1016.25
2018-07-02T05:19:23.096Z,1016.29
2018-07-02T05:20:22.925Z,1016.28
2018-07-02T05:21:22.940Z,1016.36
2018-07-02T05:22:24.265Z,1016.31
2018-07-02T05:23:22.890Z,1016.35
2018-07-02T05:24:22.910Z,1016.34
2018-07-02T05:25:22.933Z,1016.4
2018-07-02T05:26:22.933Z,1016.41
2018-07-02T05:27:22.927Z,1016.46
2018-07-02T05:28:22.938Z,1016.39
2018-07-02T05:29:22.906Z,1016.42
2018-07-02T05:30:22.903Z,1016.46
2018-07-02T05:31:23.017Z,1016.36
2018-07-02T05:32:22.927Z,1016.38
2018-07-02T05:33:22.899Z,1016.36
2018-07-02T05:34:22.939Z,1016.39
2018-07-02T05:35:23.095Z,1016.37
2018-07-02T05:36:22.892Z,1016.33
2018-07-02T05:37:22.949Z,1016.34
2018-07-02T05:38:22.904Z,1016.33
2018-07-02T05:39:22.954Z,1016.3
2018-07-02T05:40:23.134Z,1016.36
2018-07-02T05:41:22.949Z,1016.38
2018-07-02T05:42:22.961Z,1016.39
2018-07-02T05:43:23.047Z,1016.4
2018-07-02T05:44:22.986Z,1016.43
2018-07-02T05:45:22.921Z,1016.44
2018-07-02T05:46:22.909Z,1016.47
2018-07-02T05:47:22.911Z,1016.49
2018-07-02T05:48:22.928Z,1016.46
2018-07-02T05:49:22.981Z,1016.49
2018-07-02T05:50:22.952Z,1016.52
2018-07-02T05:51:22.948Z,1016.48
2018-07-02T05:52:23.208Z,1016.52
2018-07-02T05:53:22.926Z,1016.48
2018-07-02T05:54:22.935Z,1016.52
2018-07-02T05:55:22.925Z,1016.49
2018-07-02T05:56:22.930Z,1016.52
2018-07-02T05:57:22.930Z,1016.48
2018-07-02T05:58:22.966Z,1016.5
2018-07-02T05:59:22.918Z,1016.56
2018-07-02T06:00:23.121Z,1016.5
2018-07-02T06:01:22.937Z,1016.54
2018-07-02T06:02:22.948Z,1016.51
2018-07-02T06:03:23.019Z,1016.51
2018-07-02T06:04:22.942Z,1016.49
2018-07-02T06:05:22.942Z,1016.44
2018-07-02T06:06:22.948Z,1016.47
2018-07-02T06:07:22.994Z,1016.51
2018-07-02T06:08:22.914Z,1016.5
2018-07-02T06:09:23.030Z,1016.53
2018-07-02T06:10:22.977Z,1016.49
2018-07-02T06:11:22.979Z,1016.55
2018-07-02T06:12:22.970Z,1016.56
2018-07-02T06:13:23.125Z,1016.56
2018-07-02T06:14:22.968Z,1016.58
2018-07-02T06:15:22.926Z,1016.57
2018-07-02T06:16:24.169Z,1016.66
2018-07-02T06:17:22.935Z,1016.6
2018-07-02T06:18:22.981Z,1016.64
2018-07-02T06:19:22.980Z,1016.62
2018-07-02T06:20:22.995Z,1016.64
2018-07-02T06:21:22.975Z,1016.63
2018-07-02T06:22:23.184Z,1016.57
2018-07-02T06:23:23.258Z,1016.67
2018-07-02T06:24:22.956Z,1016.65
2018-07-02T06:25:22.980Z,1016.68
2018-07-02T06:26:22.957Z,1016.69
2018-07-02T06:27:23.044Z,1016.67
2018-07-02T06:28:22.974Z,1016.69
2018-07-02T06:29:23.148Z,1016.65
2018-07-02T06:30:23.122Z,1016.72
2018-07-02T06:31:22.971Z,1016.69
2018-07-02T06:32:22.975Z,1016.67
2018-07-02T06:33:22.941Z,1016.72
2018-07-02T06:34:23.033Z,1016.72
2018-07-02T06:35:22.986Z,1016.69
2018-07-02T06:36:22.965Z,1016.66
2018-07-02T06:37:22.970Z,1016.7
2018-07-02T06:38:22.989Z,1016.69
2018-07-02T06:39:22.984Z,1016.71
2018-07-02T06:40:22.982Z,1016.74
2018-07-02T06:41:23.076Z,1016.72
2018-07-02T06:42:22.973Z,1016.79
2018-07-02T06:43:22.995Z,1016.8
2018-07-02T06:44:22.956Z,1016.8
2018-07-02T06:45:23.007Z,1016.84
2018-07-02T06:46:22.975Z,1016.81
2018-07-02T06:47:23.207Z,1016.8
2018-07-02T06:48:23.117Z,1016.77
2018-07-02T06:49:22.991Z,1016.77
2018-07-02T06:50:23.135Z,1016.77
2018-07-02T06:51:23.034Z,1016.78
2018-07-02T06:52:23.030Z,1016.76
2018-07-02T06:53:23.013Z,1016.81
2018-07-02T06:54:23.038Z,1016.8
2018-07-02T06:55:23.127Z,1016.76
2018-07-02T06:56:23.034Z,1016.87
2018-07-02T06:57:23.116Z,1016.83
2018-07-02T06:58:23.035Z,1016.83
2018-07-02T06:59:23.035Z,1016.8
2018-07-02T07:00:22.969Z,1016.78
2018-07-02T07:01:23.074Z,1016.75
2018-07-02T07:02:23.046Z,1016.74
2018-07-02T07:03:23.035Z,1016.7
2018-07-02T07:04:23.019Z,1016.78
2018-07-02T07:05:23.002Z,1016.72
2018-07-02T07:06:23.076Z,1016.74
2018-07-02T07:07:23.052Z,1016.73
2018-07-02T07:08:22.985Z,1016.75
2018-07-02T07:09:23.079Z,1016.77
2018-07-02T07:10:22.984Z,1016.79
2018-07-02T07:11:23.014Z,1016.75
2018-07-02T07:12:23.015Z,1016.78
2018-07-02T07:13:23.010Z,1016.77
2018-07-02T07:14:23.010Z,1016.7
2018-07-02T07:15:23.023Z,1016.74
2018-07-02T07:16:23.032Z,1016.85
2018-07-02T07:17:23.021Z,1016.79
2018-07-02T07:18:23.035Z,1016.85
2018-07-02T07:19:23.069Z,1016.89
2018-07-02T07:20:23.016Z,1016.89
2018-07-02T07:21:23.010Z,1016.9
2018-07-02T07:22:23.019Z,1016.89
2018-07-02T07:23:23.094Z,1016.85
2018-07-02T07:24:23.197Z,1016.82
2018-07-02T07:25:23.194Z,1016.89
2018-07-02T07:26:23.046Z,1016.9
2018-07-02T07:27:22.999Z,1016.88
2018-07-02T07:28:23.046Z,1016.89
2018-07-02T07:29:23.054Z,1016.86
2018-07-02T07:30:23.031Z,1016.89
2018-07-02T07:31:23.052Z,1016.85
2018-07-02T07:32:23.032Z,1016.86
2018-07-02T07:33:23.048Z,1016.83
2018-07-02T07:34:23.061Z,1016.83
2018-07-02T07:35:23.048Z,1016.82
2018-07-02T07:36:23.065Z,1016.76
2018-07-02T07:37:23.105Z,1016.74
2018-07-02T07:38:23.030Z,1016.75
2018-07-02T07:39:23.038Z,1016.75
2018-07-02T07:40:23.067Z,1016.82
2018-07-02T07:41:23.076Z,1016.73
2018-07-02T07:42:23.021Z,1016.75
2018-07-02T07:43:23.040Z,1016.69
2018-07-02T07:44:23.072Z,1016.69
2018-07-02T07:45:23.030Z,1016.69
2018-07-02T07:46:23.035Z,1016.69
2018-07-02T07:47:23.143Z,1016.66
2018-07-02T07:48:23.044Z,1016.62
2018-07-02T07:49:23.159Z,1016.65
2018-07-02T07:50:23.103Z,1016.63
2018-07-02T07:51:23.048Z,1016.65
2018-07-02T07:52:23.043Z,1016.64
2018-07-02T07:53:23.085Z,1016.63
2018-07-02T07:54:23.052Z,1016.67
2018-07-02T07:55:23.177Z,1016.63
2018-07-02T07:56:23.058Z,1016.7
2018-07-02T07:57:23.087Z,1016.69
2018-07-02T07:58:23.045Z,1016.68
2018-07-02T07:59:23.189Z,1016.71
2018-07-02T08:00:23.055Z,1016.64
2018-07-02T08:01:23.111Z,1016.69
2018-07-02T08:02:23.055Z,1016.68
2018-07-02T08:03:23.066Z,1016.62
2018-07-02T08:04:23.058Z,1016.62
2018-07-02T08:05:23.095Z,1016.64
2018-07-02T08:06:23.081Z,1016.65
2018-07-02T08:07:23.065Z,1016.61
2018-07-02T08:08:23.082Z,1016.61
2018-07-02T08:09:23.072Z,1016.59
2018-07-02T08:10:23.147Z,1016.55
2018-07-02T08:11:23.124Z,1016.55
2018-07-02T08:12:23.179Z,1016.56
2018-07-02T08:13:23.149Z,1016.59
2018-07-02T08:14:23.121Z,1016.56
2018-07-02T08:15:23.287Z,1016.56
2018-07-02T08:16:23.334Z,1016.54
2018-07-02T08:17:23.100Z,1016.51
2018-07-02T08:18:23.074Z,1016.56
2018-07-02T08:19:23.182Z,1016.53
2018-07-02T08:20:23.087Z,1016.51
2018-07-02T08:21:23.089Z,1016.5
2018-07-02T08:22:23.135Z,1016.52
2018-07-02T08:23:23.164Z,1016.49
2018-07-02T08:24:23.154Z,1016.49
2018-07-02T08:25:23.202Z,1016.46
2018-07-02T08:26:23.128Z,1016.46
2018-07-02T08:27:23.169Z,1016.39
2018-07-02T08:28:23.107Z,1016.42
2018-07-02T08:29:23.110Z,1016.44
2018-07-02T08:30:23.261Z,1016.37
2018-07-02T08:31:23.151Z,1016.38
2018-07-02T08:32:23.092Z,1016.4
2018-07-02T08:33:23.110Z,1016.41
2018-07-02T08:34:23.210Z,1016.41
2018-07-02T08:35:23.125Z,1016.42
2018-07-02T08:36:23.373Z,1016.45
2018-07-02T08:37:23.133Z,1016.46
2018-07-02T08:38:23.107Z,1016.46
2018-07-02T08:39:23.093Z,1016.49
2018-07-02T08:40:23.149Z,1016.5
2018-07-02T08:41:23.214Z,1016.45
2018-07-02T08:42:23.123Z,1016.48
2018-07-02T08:43:23.127Z,1016.46
2018-07-02T08:44:23.109Z,1016.5
2018-07-02T08:45:23.092Z,1016.43
2018-07-02T08:46:23.111Z,1016.42
2018-07-02T08:47:23.126Z,1016.4
2018-07-02T08:48:23.134Z,1016.35
2018-07-02T08:49:23.108Z,1016.33
2018-07-02T08:50:23.130Z,1016.35
2018-07-02T08:51:23.283Z,1016.36
2018-07-02T08:52:23.197Z,1016.28
2018-07-02T08:53:23.140Z,1016.33
2018-07-02T08:54:23.166Z,1016.35
2018-07-02T08:55:23.136Z,1016.3
2018-07-02T08:56:23.411Z,1016.32
2018-07-02T08:57:23.150Z,1016.35
2018-07-02T08:58:23.313Z,1016.28
2018-07-02T08:59:23.161Z,1016.21
2018-07-02T09:00:23.143Z,1016.26
2018-07-02T09:01:23.263Z,1016.23
2018-07-02T09:02:23.132Z,1016.2
2018-07-02T09:03:23.312Z,1016.2
2018-07-02T09:04:23.223Z,1016.23
2018-07-02T09:05:23.255Z,1016.26
2018-07-02T09:06:23.301Z,1016.23
2018-07-02T09:07:23.503Z,1016.26
2018-07-02T09:08:23.149Z,1016.26
2018-07-02T09:09:23.188Z,1016.14
2018-07-02T09:10:23.122Z,1016.17
2018-07-02T09:11:23.162Z,1016.12
2018-07-02T09:12:23.128Z,1016.09
2018-07-02T09:13:23.193Z,1016.07
2018-07-02T09:14:23.183Z,1016.07
2018-07-02T09:15:23.179Z,1016.03
2018-07-02T09:16:23.136Z,1016.02
2018-07-02T09:17:23.350Z,1016
2018-07-02T09:18:23.165Z,1016.03
2018-07-02T09:19:23.147Z,1016.06
2018-07-02T09:20:23.127Z,1016.07
2018-07-02T09:21:23.209Z,1016.08
2018-07-02T09:22:23.145Z,1015.98
2018-07-02T09:23:23.289Z,1016.05
2018-07-02T09:24:23.210Z,1016.02
2018-07-02T09:25:23.175Z,1016.03
2018-07-02T09:26:23.160Z,1015.97
2018-07-02T09:27:23.133Z,1015.95
2018-07-02T09:28:23.190Z,1016.07
2018-07-02T09:29:23.246Z,1016.06
2018-07-02T09:30:23.332Z,1016.03
2018-07-02T09:31:23.750Z,1015.93
2018-07-02T09:32:23.367Z,1016
2018-07-02T09:33:23.261Z,1015.99
2018-07-02T09:34:23.152Z,1016.11
2018-07-02T09:35:23.281Z,1016.05
2018-07-02T09:36:23.228Z,1016.1
2018-07-02T09:37:23.173Z,1016.05
2018-07-02T09:38:23.209Z,1016.07
2018-07-02T09:39:23.499Z,1016
2018-07-02T09:40:23.187Z,1015.99
2018-07-02T09:41:23.236Z,1016.12
2018-07-02T09:42:23.204Z,1016.12
2018-07-02T09:43:23.171Z,1016.08
2018-07-02T09:44:23.203Z,1016.06
2018-07-02T09:45:23.172Z,1016.04
2018-07-02T09:46:23.205Z,1016.05
2018-07-02T09:47:23.174Z,1016.05
2018-07-02T09:48:23.319Z,1016.06
2018-07-02T09:49:23.434Z,1016.12
2018-07-02T09:50:23.184Z,1016.11
2018-07-02T09:51:23.191Z,1016.08
2018-07-02T09:52:23.183Z,1016.15
2018-07-02T09:53:23.226Z,1016.14
2018-07-02T09:54:23.176Z,1016.1
2018-07-02T09:55:23.167Z,1016.1
2018-07-02T09:56:23.221Z,1016.1
2018-07-02T09:57:23.235Z,1016.07
2018-07-02T09:58:23.204Z,1016.07
2018-07-02T09:59:23.173Z,1016.07
2018-07-02T10:00:23.213Z,1016.09
2018-07-02T10:01:23.192Z,1016.09
2018-07-02T10:02:23.188Z,1016.1
2018-07-02T10:03:23.222Z,1016.13
2018-07-02T10:04:23.545Z,1016.13
2018-07-02T10:05:23.395Z,1016.13
2018-07-02T10:06:23.336Z,1016.18
2018-07-02T10:07:23.206Z,1016.16
2018-07-02T10:08:23.243Z,1016.14
2018-07-02T10:09:23.235Z,1016.18
2018-07-02T10:10:23.272Z,1016.16
2018-07-02T10:11:23.224Z,1016.12
2018-07-02T10:12:23.228Z,1016.08
2018-07-02T10:13:23.238Z,1016.11
2018-07-02T10:14:23.548Z,1016.12
2018-07-02T10:15:23.375Z,1016.11
2018-07-02T10:16:23.340Z,1016.1
2018-07-02T10:17:23.253Z,1016.12
2018-07-02T10:18:23.229Z,1016.04
2018-07-02T10:19:23.408Z,1016.05
2018-07-02T10:20:23.303Z,1016.14
2018-07-02T10:21:23.288Z,1016.1
2018-07-02T10:22:23.466Z,1016.03
2018-07-02T10:23:23.294Z,1016.03
2018-07-02T10:24:23.244Z,1016.01
2018-07-02T10:25:23.244Z,1015.99
2018-07-02T10:26:23.220Z,1016
2018-07-02T10:27:23.291Z,1016.05
2018-07-02T10:28:23.350Z,1016.12
2018-07-02T10:29:23.331Z,1016.09
2018-07-02T10:30:23.216Z,1016.11
2018-07-02T10:31:23.786Z,1016.13
2018-07-02T10:32:23.231Z,1016.06
2018-07-02T10:33:23.242Z,1016.04
2018-07-02T10:34:23.351Z,1016.04
2018-07-02T10:35:23.256Z,1016.14
2018-07-02T10:36:23.259Z,1016.09
2018-07-02T10:37:23.222Z,1016.04
2018-07-02T10:38:23.295Z,1016.06
2018-07-02T10:39:23.423Z,1016.08
2018-07-02T10:40:23.284Z,1016.06
2018-07-02T10:41:23.250Z,1016.01
2018-07-02T10:42:23.394Z,1016.1
2018-07-02T10:43:23.287Z,1016.06
2018-07-02T10:44:23.265Z,1016.09
2018-07-02T10:45:23.354Z,1016.09
2018-07-02T10:46:23.289Z,1016.07
2018-07-02T10:47:23.250Z,1016.04
2018-07-02T10:48:23.414Z,1016.05
2018-07-02T10:49:23.288Z,1015.97
2018-07-02T10:50:23.360Z,1015.91
2018-07-02T10:51:23.228Z,1015.96
2018-07-02T10:52:23.278Z,1015.92
2018-07-02T10:53:23.297Z,1015.93
2018-07-02T10:54:23.402Z,1015.91
2018-07-02T10:55:23.348Z,1015.91
2018-07-02T10:56:23.251Z,1015.88
2018-07-02T10:57:23.252Z,1015.91
2018-07-02T10:58:23.300Z,1015.94
2018-07-02T10:59:23.261Z,1015.96
2018-07-02T11:00:23.265Z,1015.98
2018-07-02T11:01:23.351Z,1015.93
2018-07-02T11:02:23.292Z,1015.98
2018-07-02T11:03:23.387Z,1015.97
2018-07-02T11:04:23.271Z,1016.01
2018-07-02T11:05:23.260Z,1015.99
2018-07-02T11:06:23.270Z,1016.02
2018-07-02T11:07:23.247Z,1015.99
2018-07-02T11:08:23.268Z,1015.95
2018-07-02T11:09:23.289Z,1015.93
2018-07-02T11:10:23.253Z,1015.87
2018-07-02T11:11:23.273Z,1015.91
2018-07-02T11:12:23.268Z,1015.92
2018-07-02T11:13:23.303Z,1015.87
2018-07-02T11:14:23.279Z,1015.81
2018-07-02T11:15:23.278Z,1015.82
2018-07-02T11:16:23.286Z,1015.84
2018-07-02T11:17:23.284Z,1015.85
2018-07-02T11:18:23.300Z,1015.85
2018-07-02T11:19:23.294Z,1015.82
2018-07-02T11:20:23.325Z,1015.81
2018-07-02T11:21:23.300Z,1015.76
2018-07-02T11:22:23.284Z,1015.78
2018-07-02T11:23:23.426Z,1015.79
2018-07-02T11:24:23.315Z,1015.79
2018-07-02T11:25:23.352Z,1015.73
2018-07-02T11:26:23.335Z,1015.73
2018-07-02T11:27:23.353Z,1015.72
2018-07-02T11:28:23.311Z,1015.77
2018-07-02T11:29:23.287Z,1015.79
2018-07-02T11:30:23.337Z,1015.76
2018-07-02T11:31:23.310Z,1015.71
2018-07-02T11:32:23.303Z,1015.68
2018-07-02T11:33:23.440Z,1015.67
2018-07-02T11:34:23.326Z,1015.58
2018-07-02T11:35:23.325Z,1015.67
2018-07-02T11:36:23.305Z,1015.71
2018-07-02T11:37:23.428Z,1015.69
2018-07-02T11:38:23.325Z,1015.68
2018-07-02T11:39:23.340Z,1015.7
2018-07-02T11:40:23.364Z,1015.72
2018-07-02T11:41:23.342Z,1015.69
2018-07-02T11:42:23.403Z,1015.72
2018-07-02T11:43:23.314Z,1015.69
2018-07-02T11:44:23.346Z,1015.7
2018-07-02T11:45:23.352Z,1015.68
2018-07-02T11:46:23.393Z,1015.66
2018-07-02T11:47:23.512Z,1015.64
2018-07-02T11:48:23.326Z,1015.67
2018-07-02T11:49:23.385Z,1015.63
2018-07-02T11:50:23.342Z,1015.61
2018-07-02T11:51:23.379Z,1015.65
2018-07-02T11:52:23.356Z,1015.64
2018-07-02T11:53:23.354Z,1015.59
2018-07-02T11:54:23.362Z,1015.58
2018-07-02T11:55:23.371Z,1015.57
2018-07-02T11:56:23.371Z,1015.62
2018-07-02T11:57:23.566Z,1015.58
2018-07-02T11:58:23.434Z,1015.65
2018-07-02T11:59:23.480Z,1015.58
2018-07-02T12:00:23.345Z,1015.6
2018-07-02T12:01:23.406Z,1015.59
2018-07-02T12:02:23.507Z,1015.58
2018-07-02T12:03:23.366Z,1015.61
2018-07-02T12:04:23.378Z,1015.55
2018-07-02T12:05:23.416Z,1015.59
2018-07-02T12:06:23.433Z,1015.56
2018-07-02T12:07:23.400Z,1015.58
2018-07-02T12:08:23.486Z,1015.53